Time;durP1;ratioP1;P1;durP2;ratioP2;P2;SDS_P1;SDS_P2;PMS_P1;PMS_P2;Temp;Humidity;BMP_temperature;BMP_pressure;BME280_temperature;BME280_humidity;BME280_pressure;Samples;Min_cycle;Max_cycle;Signal;HPM_P1;HPM_P2
2022/08/21 00:00:49;;;;;;;6.60;3.83;;;;;;;25.91;54.52;100869.23;2255015;77;51393;-74
2022/08/21 00:03:51;;;;;;;9.60;3.75;;;;;;;25.91;54.57;100871.95;2279536;77;51091;-74
2022/08/21 00:06:53;;;;;;;7.55;3.70;;;;;;;25.92;54.64;100873.59;2278931;77;52027;-74
2022/08/21 00:09:55;;;;;;;4.67;3.55;;;;;;;25.90;54.60;100871.66;2310553;77;50716;-75
2022/08/21 00:12:57;;;;;;;6.85;4.10;;;;;;;25.90;54.54;100871.66;2279435;77;51584;-74
2022/08/21 00:16:00;;;;;;;8.13;4.05;;;;;;;25.92;54.48;100869.02;2278911;77;51347;-73
2022/08/21 00:19:02;;;;;;;4.03;3.42;;;;;;;25.92;54.46;100876.30;2254386;77;52692;-74
2022/08/21 00:22:04;;;;;;;6.05;3.83;;;;;;;25.90;54.44;100861.64;2279245;77;50761;-73
2022/08/21 00:25:07;;;;;;;4.12;3.70;;;;;;;25.90;54.42;100864.88;2266680;77;50281;-75
2022/08/21 00:28:09;;;;;;;4.45;3.37;;;;;;;25.89;54.33;100861.31;2267031;77;51532;-75
2022/08/21 00:31:12;;;;;;;6.03;3.67;;;;;;;25.89;54.28;100854.54;2311214;76;51457;-73
2022/08/21 00:34:14;;;;;;;5.92;3.52;;;;;;;25.89;54.35;100864.56;2310516;77;50689;-74
2022/08/21 00:37:16;;;;;;;5.17;3.85;;;;;;;25.89;54.29;100857.25;2280445;76;50406;-73
2022/08/21 00:40:21;;;;;;;6.08;3.83;;;;;;;25.88;54.29;100865.09;2292750;76;50473;-73
2022/08/21 00:43:27;;;;;;;5.60;3.52;;;;;;;25.88;54.18;100865.63;2318867;75;51557;-74
2022/08/21 00:46:29;;;;;;;4.90;3.58;;;;;;;25.90;54.14;100872.48;2297560;76;50450;-74
2022/08/21 00:49:32;;;;;;;4.70;3.47;;;;;;;25.90;54.14;100872.48;2319029;76;50502;-74
2022/08/21 16:32:46;;;;;;;26.55;4.60;;;;;;;24.04;42.20;100846.79;2386677;72;25677;-74
2022/08/21 16:35:48;;;;;;;17.30;3.67;;;;;;;24.03;41.85;100846.49;2334381;76;50580;-73
2022/08/21 16:38:52;;;;;;;12.47;3.77;;;;;;;24.09;42.05;100844.27;2325169;76;51373;-73
2022/08/21 16:41:54;;;;;;;9.40;3.25;;;;;;;24.13;41.40;100845.52;2306250;76;22337;-73
2022/08/21 16:44:56;;;;;;;9.23;3.27;;;;;;;24.17;41.09;100848.60;2286537;75;49110;-74
2022/08/21 16:47:59;;;;;;;14.33;6.30;;;;;;;24.19;41.13;100846.52;2260532;76;49624;-73
2022/08/21 16:51:01;;;;;;;21.12;15.13;;;;;;;24.24;41.00;100842.64;2261896;76;51300;-73
2022/08/21 16:54:03;;;;;;;18.55;10.60;;;;;;;24.34;40.15;100844.36;2309113;75;50866;-74
2022/08/21 16:57:05;;;;;;;11.33;5.80;;;;;;;24.33;39.97;100844.89;2306744;76;50473;-74
2022/08/21 17:00:11;;;;;;;11.35;5.87;;;;;;;24.32;39.79;100841.86;2297023;76;50013;-74
2022/08/21 17:03:15;;;;;;;10.03;5.40;;;;;;;24.34;39.86;100835.72;2274489;76;22583;-74
2022/08/21 17:06:17;;;;;;;10.32;4.00;;;;;;;24.41;39.84;100841.09;2332630;76;50658;-74
2022/08/21 17:09:19;;;;;;;9.00;3.55;;;;;;;24.42;39.72;100834.63;2311957;76;51116;-74
2022/08/21 17:12:22;;;;;;;5.65;3.00;;;;;;;24.42;39.12;100837.34;2334359;75;50406;-74
2022/08/21 17:15:27;;;;;;;9.58;5.10;;;;;;;24.41;38.87;100837.57;2333408;76;50771;-73
2022/08/21 17:18:29;;;;;;;;;;;;;;;24.35;39.05;100841.95;2313389;76;50520;-74
2022/08/21 17:21:31;;;;;;;19.90;9.60;;;;;;;24.29;38.97;100840.13;2334416;76;50639;-74
2022/08/21 17:24:34;;;;;;;15.18;9.68;;;;;;;24.28;39.44;100841.18;2312118;76;50099;-74
2022/08/21 17:27:37;;;;;;;19.98;7.90;;;;;;;24.37;39.57;100841.22;2311738;76;50787;-74
2022/08/21 17:30:41;;;;;;;17.98;7.53;;;;;;;24.36;39.79;100841.45;2311138;76;51429;-73
2022/08/21 17:33:49;;;;;;;16.02;7.35;;;;;;;24.42;40.53;100841.39;2269289;76;23251;-74
2022/08/21 17:36:49;;;;;;;16.75;8.10;;;;;;;24.46;40.86;100839.95;2290168;76;22357;-73
2022/08/21 17:39:51;;;;;;;18.30;8.23;;;;;;;24.49;41.70;100843.57;2318719;76;51383;-75
2022/08/21 17:42:53;;;;;;;26.65;9.03;;;;;;;24.53;41.57;100843.45;2254869;76;50871;-75
2022/08/21 17:45:55;;;;;;;26.55;7.90;;;;;;;24.60;41.67;100842.04;2311437;76;51416;-73
2022/08/21 17:48:57;;;;;;;21.82;8.63;;;;;;;24.62;41.73;100835.07;2286406;76;50196;-75
2022/08/21 17:52:00;;;;;;;29.23;8.35;;;;;;;24.63;41.81;100842.12;2243208;78;50030;-75
2022/08/21 17:55:03;;;;;;;21.10;7.83;;;;;;;24.66;41.97;100843.03;2218877;79;50159;-73
2022/08/21 17:58:05;;;;;;;18.92;8.33;;;;;;;24.69;41.91;100844.80;2279611;78;50837;-76
2022/08/21 18:01:07;;;;;;;20.23;7.70;;;;;;;24.71;42.03;100844.56;2239377;78;51379;-72
2022/08/21 18:04:11;;;;;;;14.90;7.37;;;;;;;24.72;42.18;100852.47;2296151;77;51399;-73
2022/08/21 18:07:16;;;;;;;17.67;7.50;;;;;;;24.80;42.13;100855.44;2251005;77;49483;-73
2022/08/21 18:10:18;;;;;;;18.77;7.70;;;;;;;24.80;42.15;100850.55;2278060;77;50698;-72
2022/08/21 18:13:25;;;;;;;18.95;7.40;;;;;;;24.80;42.19;100853.27;2279431;77;50213;-75
2022/08/21 18:16:28;;;;;;;21.05;7.15;;;;;;;24.75;42.27;100857.97;2278479;77;50077;-75
2022/08/21 18:19:30;;;;;;;23.67;7.75;;;;;;;24.75;42.32;100853.91;2298175;77;51526;-71
2022/08/21 18:22:33;;;;;;;28.50;8.18;;;;;;;24.75;42.35;100861.50;2258422;77;50304;-71
2022/08/21 18:25:35;;;;;;;16.23;7.28;;;;;;;24.81;42.37;100866.55;2255440;78;50130;-72
2022/08/21 18:28:37;;;;;;;18.20;7.20;;;;;;;24.83;42.40;100869.88;2302596;76;50165;-73
2022/08/21 18:31:39;;;;;;;32.28;8.05;;;;;;;24.83;42.50;100869.88;2275715;77;49526;-70
2022/08/21 18:34:44;;;;;;;35.20;8.18;;;;;;;24.91;42.51;100877.72;2305732;77;50147;-70
2022/08/21 18:37:45;;;;;;;20.50;7.47;;;;;;;24.87;42.64;100871.11;2329599;76;22310;-71
2022/08/21 18:40:52;;;;;;;27.40;7.40;;;;;;;24.87;42.69;100869.75;2262945;76;50913;-71
2022/08/21 18:43:55;;;;;;;17.48;6.37;;;;;;;24.89;42.75;100877.14;2342327;76;50203;-70
2022/08/21 18:46:59;;;;;;;21.42;7.17;;;;;;;24.89;42.74;100874.44;2322080;76;50295;-72
2022/08/21 18:50:02;;;;;;;16.10;6.47;;;;;;;24.89;42.84;100874.44;2322571;76;50332;-70
2022/08/21 18:53:04;;;;;;;21.07;7.33;;;;;;;24.89;42.92;100879.84;2320349;76;51488;-70
2022/08/21 18:56:07;;;;;;;20.97;6.97;;;;;;;24.92;42.97;100879.90;2262429;76;51732;-70
2022/08/21 18:59:10;;;;;;;18.98;7.22;;;;;;;24.94;43.01;100877.28;2332248;76;50198;-73
2022/08/21 19:02:12;;;;;;;17.52;6.72;;;;;;;24.94;43.01;100884.05;2302752;77;50341;-71
2022/08/21 19:05:16;;;;;;;12.37;6.60;;;;;;;24.95;43.10;100877.60;2292302;75;49498;-71
2022/08/21 19:08:20;;;;;;;17.82;7.10;;;;;;;24.97;43.17;100876.01;2304722;75;50672;-70
2022/08/21 19:11:23;;;;;;;15.45;7.20;;;;;;;24.98;43.24;100876.33;2288166;77;49561;-70
2022/08/21 19:14:25;;;;;;;13.10;6.40;;;;;;;24.98;43.28;100881.22;2297690;77;50417;-71
2022/08/21 19:17:27;;;;;;;12.58;6.75;;;;;;;25.02;43.33;100878.88;2311981;76;50354;-73
2022/08/21 19:20:35;;;;;;;14.53;6.90;;;;;;;25.01;43.43;100880.48;2282920;77;50863;-73
2022/08/21 19:23:36;;;;;;;13.62;7.35;;;;;;;25.01;43.46;100881.30;2259642;78;23080;-71
2022/08/21 19:26:38;;;;;;;11.30;6.47;;;;;;;25.02;43.56;100885.66;2247935;79;50011;-72
2022/08/21 19:29:40;;;;;;;15.98;6.75;;;;;;;25.03;43.54;100888.69;2258985;77;50260;-71
2022/08/21 19:32:44;;;;;;;12.85;7.45;;;;;;;25.03;43.60;100895.45;2328933;75;50523;-72
2022/08/21 19:35:46;;;;;;;11.10;7.03;;;;;;;25.02;43.60;100895.66;2323646;76;51373;-72
2022/08/21 19:38:49;;;;;;;12.65;7.03;;;;;;;25.04;43.59;100884.09;2294148;77;50384;-71
2022/08/21 19:41:56;;;;;;;14.43;6.72;;;;;;;25.05;43.61;100883.03;2240253;78;51471;-71
2022/08/21 19:44:58;;;;;;;16.60;6.60;;;;;;;25.05;43.68;100883.03;2306015;76;50684;-71
2022/08/21 19:48:00;;;;;;;12.88;6.80;;;;;;;25.06;43.84;100887.41;2318154;76;51713;-71
2022/08/21 19:51:02;;;;;;;12.35;7.05;;;;;;;25.07;43.87;100889.06;2304535;76;50284;-71
2022/08/21 19:54:05;;;;;;;10.93;6.50;;;;;;;25.08;43.88;100892.09;2261852;75;51351;-70
2022/08/21 19:57:08;;;;;;;10.45;6.53;;;;;;;25.08;43.98;100886.67;2292826;76;50694;-70
2022/08/21 20:00:11;;;;;;;15.98;6.83;;;;;;;25.10;44.01;100883.20;2319579;76;50358;-73
2022/08/21 20:03:14;;;;;;;17.05;7.15;;;;;;;25.11;44.04;100885.70;2269212;77;51556;-73
2022/08/21 20:06:16;;;;;;;11.30;6.83;;;;;;;25.08;44.13;100885.32;2260766;76;51416;-73
2022/08/21 20:09:19;;;;;;;13.53;6.95;;;;;;;25.10;44.14;100887.26;2266074;78;49602;-72
2022/08/21 20:12:24;;;;;;;13.43;6.53;;;;;;;25.11;44.22;100888.94;2266070;76;50299;-73
2022/08/21 20:15:26;;;;;;;11.22;6.20;;;;;;;25.13;44.26;100891.73;2317868;76;50301;-73
2022/08/21 20:18:28;;;;;;;13.65;6.35;;;;;;;25.14;44.37;100897.97;2280496;77;51480;-74
2022/08/21 20:21:32;;;;;;;14.05;6.90;;;;;;;25.15;44.44;100894.20;2305377;76;49886;-73
2022/08/21 20:24:34;;;;;;;12.60;6.70;;;;;;;25.14;44.64;100885.78;2301214;76;50181;-74
2022/08/21 20:27:36;;;;;;;14.13;6.65;;;;;;;25.15;44.57;100890.13;2233730;76;49494;-72
2022/08/21 20:30:39;;;;;;;12.05;6.62;;;;;;;25.15;44.68;100891.48;2305355;76;50640;-72
2022/08/21 20:33:41;;;;;;;12.13;6.70;;;;;;;25.16;44.69;100890.48;2292062;76;51073;-73
2022/08/21 20:36:44;;;;;;;14.13;6.92;;;;;;;25.17;44.69;100893.48;2272022;78;51515;-73
2022/08/21 20:39:46;;;;;;;10.75;6.15;;;;;;;25.16;44.84;100890.48;2270736;77;51453;-73
2022/08/21 20:42:50;;;;;;;16.75;7.30;;;;;;;25.16;44.97;100890.48;2267723;78;50976;-72
2022/08/21 20:45:52;;;;;;;9.63;6.17;;;;;;;25.15;44.99;100896.91;2304704;76;51232;-73
2022/08/21 20:48:54;;;;;;;12.53;6.72;;;;;;;25.14;45.00;100897.44;2279966;78;50237;-73
2022/08/21 20:51:56;;;;;;;11.03;6.25;;;;;;;25.16;45.03;100895.91;2285927;76;50538;-73
2022/08/21 20:55:02;;;;;;;10.30;6.10;;;;;;;25.17;44.98;100898.37;2285759;76;51417;-72
2022/08/21 20:58:08;;;;;;;10.58;5.80;;;;;;;25.20;45.11;100899.31;2267250;76;49614;-73
2022/08/21 21:01:10;;;;;;;15.70;6.00;;;;;;;25.20;45.14;100907.94;2299860;76;51437;-73
2022/08/21 21:04:18;;;;;;;16.17;6.85;;;;;;;25.20;45.29;100906.08;2293056;77;51093;-73
2022/08/21 21:07:27;;;;;;;14.95;6.50;;;;;;;25.20;45.31;100906.58;2258337;77;52566;-73
2022/08/21 21:10:32;;;;;;;12.65;6.08;;;;;;;25.21;45.37;100905.55;2288948;76;50303;-72
2022/08/21 21:13:37;;;;;;;13.70;6.33;;;;;;;25.24;45.28;100911.87;2281293;76;50031;-75
2022/08/21 21:16:45;;;;;;;12.93;6.40;;;;;;;25.19;45.34;100904.94;2289423;76;50674;-74
2022/08/21 21:19:59;;;;;;;10.32;6.00;;;;;;;25.20;45.31;100905.23;2237784;78;50684;-74
2022/08/21 21:23:14;;;;;;;12.15;6.42;;;;;;;25.20;45.21;100909.29;2282873;76;50536;-75
2022/08/21 21:26:20;;;;;;;13.60;5.62;;;;;;;25.19;45.18;100908.47;2317539;76;51471;-75
2022/08/21 21:29:31;;;;;;;16.65;6.40;;;;;;;25.19;45.14;100911.70;2318127;75;50223;-74
2022/08/21 21:32:34;;;;;;;11.22;5.42;;;;;;;25.18;45.07;100908.17;2302391;76;51007;-74
2022/08/21 21:35:41;;;;;;;10.08;5.75;;;;;;;25.20;45.07;100913.34;2243285;78;50566;-74
2022/08/21 21:38:49;;;;;;;12.45;5.42;;;;;;;25.20;45.07;100913.34;2279724;78;50408;-74
2022/08/21 21:42:07;;;;;;;13.98;5.85;;;;;;;25.19;44.96;100913.88;2297265;76;49999;-74
2022/08/21 21:45:26;;;;;;;11.00;5.92;;;;;;;25.19;45.05;100912.53;2313767;76;53059;-74
2022/08/21 21:48:48;;;;;;;8.75;4.60;;;;;;;25.19;44.99;100911.70;2288969;76;50760;-73
2022/08/21 21:52:02;;;;;;;8.03;4.95;;;;;;;25.21;44.86;100912.32;2292530;76;51449;-73
2022/08/21 21:55:20;;;;;;;8.10;4.47;;;;;;;25.19;44.84;100917.95;2281913;76;53042;-73
2022/08/21 21:58:41;;;;;;;10.53;5.10;;;;;;;25.18;44.94;100919.53;2291999;76;50102;-74
2022/08/21 22:01:51;;;;;;;9.95;4.97;;;;;;;25.16;44.84;100922.45;2318867;76;50475;-72
2022/08/21 22:05:14;;;;;;;10.68;4.15;;;;;;;25.14;44.49;100919.63;2232324;76;50239;-72
2022/08/21 22:08:19;;;;;;;5.78;4.40;;;;;;;25.13;44.46;100924.75;2318312;76;51442;-72
2022/08/21 22:11:42;;;;;;;6.78;4.30;;;;;;;25.11;44.37;100929.55;2318798;76;51474;-72
2022/08/21 22:14:44;;;;;;;7.85;4.15;;;;;;;25.09;44.37;100925.70;2318719;76;51483;-72
2022/08/21 22:17:58;;;;;;;6.00;4.20;;;;;;;25.08;44.29;100928.11;2318321;76;51489;-71
2022/08/21 22:21:04;;;;;;;7.20;4.00;;;;;;;25.09;44.28;100928.41;2318012;76;50677;-72
2022/08/21 22:24:14;;;;;;;5.25;4.15;;;;;;;25.09;44.19;100928.41;2299504;76;50926;-73
2022/08/21 22:27:19;;;;;;;9.83;4.67;;;;;;;25.08;44.15;100925.94;2318395;76;50330;-73
2022/08/21 22:30:42;;;;;;;5.28;3.92;;;;;;;25.06;44.09;100920.73;2318586;76;51572;-72
2022/08/21 22:33:48;;;;;;;6.22;4.15;;;;;;;25.06;44.08;100926.67;2326498;75;50238;-73
2022/08/21 22:36:58;;;;;;;5.62;4.35;;;;;;;25.06;44.05;100923.97;2323170;75;51528;-72
2022/08/21 22:40:02;;;;;;;6.20;4.03;;;;;;;25.04;44.06;100925.53;2321856;76;51064;-75
2022/08/21 22:43:07;;;;;;;6.97;4.47;;;;;;;25.03;44.02;100924.41;2322331;76;51519;-74
2022/08/21 22:46:09;;;;;;;7.65;4.15;;;;;;;25.03;43.99;100921.17;2340042;75;51554;-71
2022/08/21 22:49:15;;;;;;;6.70;4.05;;;;;;;25.04;43.91;100917.94;2279361;76;52454;-71
2022/08/21 22:52:25;;;;;;;6.28;3.65;;;;;;;25.02;43.91;100926.27;2330496;75;50630;-70
2022/08/21 22:55:31;;;;;;;6.12;4.05;;;;;;;25.02;43.84;100926.80;2302520;77;51582;-73
2022/08/21 22:58:34;;;;;;;;;;;;;;;25.02;43.81;100926.80;2304094;76;52740;-71
2022/08/21 23:01:40;;;;;;;5.87;3.62;;;;;;;25.02;43.77;100934.38;2301297;76;51633;-73
2022/08/21 23:04:45;;;;;;;5.15;3.55;;;;;;;25.01;43.75;100937.33;2323408;75;50305;-72
2022/08/21 23:07:48;;;;;;;6.62;3.95;;;;;;;24.99;43.71;100931.59;2316616;75;50626;-72
2022/08/21 23:10:50;;;;;;;5.53;4.08;;;;;;;24.98;43.63;100932.66;2346417;75;51376;-71
2022/08/21 23:13:53;;;;;;;5.30;3.77;;;;;;;24.98;43.62;100929.95;2316426;75;50098;-71
2022/08/21 23:17:17;;;;;;;5.30;3.98;;;;;;;24.97;43.65;100928.30;2316537;75;51476;-73
2022/08/21 23:20:23;;;;;;;4.80;3.72;;;;;;;24.97;43.65;100937.77;2346432;75;50444;-72
2022/08/21 23:23:27;;;;;;;4.83;3.52;;;;;;;24.96;43.66;100921.20;2316464;75;50951;-72
2022/08/21 23:26:37;;;;;;;7.05;4.00;;;;;;;24.96;43.67;100926.62;2346122;75;51503;-71
2022/08/21 23:30:07;;;;;;;5.22;3.77;;;;;;;24.96;43.67;100930.69;2345610;75;50347;-72
2022/08/21 23:33:15;;;;;;;4.80;3.52;;;;;;;24.96;43.62;100925.80;2344918;75;50405;-72
2022/08/21 23:40:23;;;;;;;4.87;3.50;;;;;;;24.94;43.60;100923.30;2342157;76;22363;-71
2022/08/21 23:43:34;;;;;;;5.62;3.72;;;;;;;24.92;43.58;100925.42;2341936;76;50394;-73
2022/08/21 23:46:44;;;;;;;5.30;3.58;;;;;;;24.93;43.57;100925.71;2341759;75;22250;-71
2022/08/21 23:49:50;;;;;;;3.52;3.15;;;;;;;24.93;43.53;100922.18;2320675;76;51282;-72
2022/08/21 23:53:19;;;;;;;4.00;3.08;;;;;;;24.93;43.56;100924.36;2325110;76;51537;-73
2022/08/21 23:56:42;;;;;;;5.25;3.47;;;;;;;24.91;43.49;100929.16;2341780;76;52510;-71
